Puto Island — XUTS7 — position and weather

sailwx.info

Track history (hours):
 
Tides and Currents Weather Stations Pressure Air Temp Water Temp Dewpoint Dewpoint Depression Visibility Wind Speed Wind Dir Waves Ship Positions

Puto Island

Last reported at 2014-Oct-22 14:33 UTC. Time now 2014-Oct-23 01:46 UTC.
Position N 33°40' E 130°10'.

Length 71 m; draft 4.8 m.

Type: Cargo ship. MMSI: 514198000.

Date/timePositionNaut miles runAvg speedWind from/ knotsBaromVisibWave heightAir tempDewpointWater temp
2014-Oct-22 14:33N 33°40' E 130°10'9 9.4
2014-Oct-22 13:33N 33°46' E 130°18'238 8.8
2014-Oct-21 10:32N 34°38' E 134°59'1111.0
2014-Oct-21 09:33N 34°36' E 135°12'10 9.8
2014-Oct-21 08:33N 34°38' E 135°23'2 0.3
2014-Oct-21 01:24N 34°39' E 135°25'0 0.0
2014-Oct-21 00:30N 34°39' E 135°25'0 0.0
2014-Oct-20 04:18N 34°39' E 135°25'0 0.0
2014-Oct-20 03:30N 34°39' E 135°25'0 0.0
2014-Oct-20 02:12N 34°39' E 135°25'0 0.0
2014-Oct-20 01:30N 34°39' E 135°25'0 0.0
2014-Oct-20 00:24N 34°39' E 135°25'0 0.0
2014-Oct-19 23:30N 34°39' E 135°25'0 0.0
2014-Oct-19 22:30N 34°39' E 135°25'3 2.9
2014-Oct-19 21:33N 34°37' E 135°23'0 0.0
2014-Oct-19 20:16N 34°37' E 135°23'0 0.0
2014-Oct-19 19:16N 34°37' E 135°23'0 0.0
2014-Oct-19 18:28N 34°37' E 135°23'0 0.0
2014-Oct-19 17:22N 34°37' E 135°23'0 0.0
2014-Oct-19 16:22N 34°37' E 135°23'0 0.0
2014-Oct-19 15:28N 34°37' E 135°23'0 0.0
2014-Oct-19 14:28N 34°37' E 135°23'0 0.0
2014-Oct-19 13:28N 34°37' E 135°23'0 0.0
2014-Oct-19 12:16N 34°37' E 135°23'0 0.0
2014-Oct-19 11:22N 34°37' E 135°23'0 0.0
2014-Oct-19 10:16N 34°37' E 135°23'0 0.1
2014-Oct-19 08:28N 34°37' E 135°24'0 0.0
2014-Oct-19 07:16N 34°37' E 135°24'0 0.0
2014-Oct-19 05:28N 34°37' E 135°24'0 0.1
2014-Oct-19 04:28N 34°37' E 135°24'0 0.0
2014-Oct-19 03:28N 34°37' E 135°24'0 0.0
2014-Oct-19 02:28N 34°37' E 135°23'0 0.0
2014-Oct-19 01:28N 34°37' E 135°23'0 0.0
2014-Oct-19 00:28N 34°37' E 135°23'0 0.0
2014-Oct-18 23:33N 34°37' E 135°23'1 0.6
2014-Oct-18 22:32N 34°37' E 135°23'9 8.7
2014-Oct-18 21:33N 34°35' E 135°13'9 9.2
2014-Oct-18 20:31N 34°37' E 135°01'  
Track history (hours):
 
Tides and Currents Weather Stations Pressure Air Temp Water Temp Dewpoint Dewpoint Depression Visibility Wind Speed Wind Dir Waves Ship Positions

Puto Island

Last reported at 2014-Oct-22 14:33 UTC. Time now 2014-Oct-23 01:46 UTC.
Position N 33°40' E 130°10'.

Length 71 m; draft 4.8 m.

Type: Cargo ship. MMSI: 514198000.

Date/timePositionNaut miles runAvg speedWind from/ knotsBaromVisibWave heightAir tempDewpointWater temp
2014-Oct-22 14:33N 33°40' E 130°10'9 9.4
2014-Oct-22 13:33N 33°46' E 130°18'238 8.8
2014-Oct-21 10:32N 34°38' E 134°59'1111.0
2014-Oct-21 09:33N 34°36' E 135°12'10 9.8
2014-Oct-21 08:33N 34°38' E 135°23'2 0.3
2014-Oct-21 01:24N 34°39' E 135°25'0 0.0
2014-Oct-21 00:30N 34°39' E 135°25'0 0.0
2014-Oct-20 04:18N 34°39' E 135°25'0 0.0
2014-Oct-20 03:30N 34°39' E 135°25'0 0.0
2014-Oct-20 02:12N 34°39' E 135°25'0 0.0
2014-Oct-20 01:30N 34°39' E 135°25'0 0.0
2014-Oct-20 00:24N 34°39' E 135°25'0 0.0
2014-Oct-19 23:30N 34°39' E 135°25'0 0.0
2014-Oct-19 22:30N 34°39' E 135°25'3 2.9
2014-Oct-19 21:33N 34°37' E 135°23'0 0.0
2014-Oct-19 20:16N 34°37' E 135°23'0 0.0
2014-Oct-19 19:16N 34°37' E 135°23'0 0.0
2014-Oct-19 18:28N 34°37' E 135°23'0 0.0
2014-Oct-19 17:22N 34°37' E 135°23'0 0.0
2014-Oct-19 16:22N 34°37' E 135°23'0 0.0
2014-Oct-19 15:28N 34°37' E 135°23'0 0.0
2014-Oct-19 14:28N 34°37' E 135°23'0 0.0
2014-Oct-19 13:28N 34°37' E 135°23'0 0.0
2014-Oct-19 12:16N 34°37' E 135°23'0 0.0
2014-Oct-19 11:22N 34°37' E 135°23'0 0.0
2014-Oct-19 10:16N 34°37' E 135°23'0 0.1
2014-Oct-19 08:28N 34°37' E 135°24'0 0.0
2014-Oct-19 07:16N 34°37' E 135°24'0 0.0
2014-Oct-19 05:28N 34°37' E 135°24'0 0.1
2014-Oct-19 04:28N 34°37' E 135°24'0 0.0
2014-Oct-19 03:28N 34°37' E 135°24'0 0.0
2014-Oct-19 02:28N 34°37' E 135°23'0 0.0
2014-Oct-19 01:28N 34°37' E 135°23'0 0.0
2014-Oct-19 00:28N 34°37' E 135°23'0 0.0
2014-Oct-18 23:33N 34°37' E 135°23'1 0.6
2014-Oct-18 22:32N 34°37' E 135°23'9 8.7
2014-Oct-18 21:33N 34°35' E 135°13'9 9.2
2014-Oct-18 20:31N 34°37' E 135°01'  

Dump ship's entire track history